createdAt,value
2022-10-22T00:01:41.347Z,14.36
2022-10-22T00:04:07.964Z,14.42
2022-10-22T00:06:34.604Z,14.50
2022-10-22T00:09:01.493Z,14.49
2022-10-22T00:11:28.390Z,14.23
2022-10-22T00:13:55.262Z,14.42
2022-10-22T00:16:21.907Z,14.50
2022-10-22T00:18:48.587Z,14.57
2022-10-22T00:21:15.219Z,14.40
2022-10-22T00:23:42.556Z,14.63
2022-10-22T00:26:10.340Z,14.60
2022-10-22T00:28:37.830Z,14.42
2022-10-22T00:31:04.931Z,14.48
2022-10-22T00:33:32.422Z,14.31
2022-10-22T00:35:59.239Z,14.13
2022-10-22T00:38:25.875Z,14.19
2022-10-22T00:40:52.506Z,13.96
2022-10-22T00:43:20.502Z,14.17
2022-10-22T00:45:47.235Z,14.08
2022-10-22T00:48:13.762Z,14.19
2022-10-22T00:50:45.729Z,14.12
2022-10-22T00:53:36.401Z,14.19
2022-10-22T00:56:03.243Z,14.29
2022-10-22T00:58:33.305Z,14.28
2022-10-22T01:01:00.057Z,14.16
2022-10-22T01:03:26.733Z,14.18
2022-10-22T01:05:57.285Z,14.34
2022-10-22T01:08:45.133Z,14.33
2022-10-22T01:11:30.927Z,14.33
2022-10-22T01:14:15.341Z,14.19
2022-10-22T01:17:06.295Z,14.33
2022-10-22T01:19:51.297Z,14.36
2022-10-22T01:22:22.136Z,14.37
2022-10-22T01:25:05.400Z,14.41
2022-10-22T01:27:57.149Z,14.40
2022-10-22T01:30:25.123Z,14.30
2022-10-22T01:32:59.190Z,14.43
2022-10-22T01:35:31.136Z,14.38
2022-10-22T01:38:05.257Z,14.40
2022-10-22T01:40:33.553Z,14.26
2022-10-22T01:43:02.635Z,14.19
2022-10-22T01:45:32.939Z,14.05
2022-10-22T01:48:23.784Z,14.05
2022-10-22T01:51:08.565Z,14.05
2022-10-22T01:53:58.460Z,14.08
2022-10-22T01:56:37.223Z,14.06
2022-10-22T01:59:17.320Z,14.08
2022-10-22T02:01:53.751Z,13.95
2022-10-22T02:04:29.609Z,13.92
2022-10-22T02:07:01.218Z,13.90
2022-10-22T02:09:29.380Z,14.07
2022-10-22T02:11:59.575Z,14.20
2022-10-22T02:14:29.848Z,14.30
2022-10-22T02:16:59.588Z,14.32
2022-10-22T02:19:30.496Z,14.35
2022-10-22T02:21:57.127Z,14.44
2022-10-22T02:24:24.278Z,14.19
2022-10-22T02:27:12.498Z,14.41
2022-10-22T02:29:52.772Z,14.11
2022-10-22T02:32:26.619Z,14.14
2022-10-22T02:34:55.355Z,14.27
2022-10-22T02:37:24.186Z,14.32
2022-10-22T02:39:51.585Z,14.23
2022-10-22T02:42:18.316Z,14.24
2022-10-22T02:44:44.880Z,14.16
2022-10-22T02:47:11.486Z,14.09
2022-10-22T02:49:38.171Z,14.30
2022-10-22T02:52:04.911Z,14.31
2022-10-22T02:54:31.698Z,14.27
2022-10-22T02:56:58.281Z,14.37
2022-10-22T02:59:24.886Z,14.41
2022-10-22T03:01:51.476Z,14.43
2022-10-22T03:04:18.070Z,14.46
2022-10-22T03:06:44.828Z,14.53
2022-10-22T03:09:11.540Z,14.62
2022-10-22T03:11:38.094Z,14.51
2022-10-22T03:14:04.667Z,14.37
2022-10-22T03:16:31.290Z,14.18
2022-10-22T03:18:57.919Z,14.24
2022-10-22T03:21:39.510Z,14.25
2022-10-22T03:24:11.824Z,14.29
2022-10-22T03:26:41.204Z,14.47
2022-10-22T03:29:09.990Z,14.47
2022-10-22T03:31:36.531Z,14.56
2022-10-22T03:34:03.164Z,14.38
2022-10-22T03:36:29.924Z,14.61
2022-10-22T03:38:56.638Z,14.73
2022-10-22T03:41:23.263Z,14.80
2022-10-22T03:43:52.852Z,14.74
2022-10-22T03:46:20.178Z,14.64
2022-10-22T03:48:46.881Z,14.63
2022-10-22T03:51:13.466Z,14.58
2022-10-22T03:53:40.015Z,14.54
2022-10-22T03:56:10.971Z,14.43
2022-10-22T03:58:40.212Z,14.38
2022-10-22T04:01:11.654Z,14.31
2022-10-22T04:03:38.589Z,14.19
2022-10-22T04:06:08.087Z,14.10
2022-10-22T04:08:35.208Z,14.01
2022-10-22T04:11:02.099Z,13.43
2022-10-22T04:13:28.691Z,13.74
2022-10-22T04:15:55.376Z,13.76
2022-10-22T04:18:23.639Z,13.74
2022-10-22T04:20:52.598Z,13.56
2022-10-22T04:23:19.231Z,13.33
2022-10-22T04:25:45.899Z,13.48
2022-10-22T04:28:12.474Z,13.34
2022-10-22T04:30:39.194Z,12.91
2022-10-22T04:33:05.848Z,13.27
2022-10-22T04:35:32.397Z,13.16
2022-10-22T04:37:58.976Z,13.07
2022-10-22T04:40:25.677Z,12.91
2022-10-22T04:42:52.258Z,12.99
2022-10-22T04:45:18.970Z,12.88
2022-10-22T04:47:45.552Z,12.70
2022-10-22T04:50:12.243Z,12.78
2022-10-22T04:52:38.951Z,12.78
2022-10-22T04:55:05.731Z,12.72
2022-10-22T04:57:32.774Z,12.61
2022-10-22T04:59:59.360Z,12.53
2022-10-22T05:02:26.019Z,12.38
2022-10-22T05:04:52.667Z,12.38
2022-10-22T05:07:19.248Z,12.46
2022-10-22T05:09:45.855Z,12.18
2022-10-22T05:12:12.722Z,12.38
2022-10-22T05:14:43.904Z,12.48
2022-10-22T05:17:11.780Z,12.39
2022-10-22T05:19:38.450Z,12.04
2022-10-22T05:22:06.114Z,12.30
2022-10-22T05:24:34.326Z,12.24
2022-10-22T05:27:01.118Z,12.38
2022-10-22T05:29:27.951Z,12.24
2022-10-22T05:31:54.998Z,12.35
2022-10-22T05:34:21.691Z,12.31
2022-10-22T05:36:48.360Z,12.14
2022-10-22T05:39:15.018Z,11.99
2022-10-22T05:41:41.722Z,12.19
2022-10-22T05:44:12.010Z,11.78
2022-10-22T05:46:38.744Z,12.06
2022-10-22T05:49:08.043Z,12.04
2022-10-22T05:51:37.224Z,12.01
2022-10-22T05:54:07.448Z,12.14
2022-10-22T05:56:35.046Z,12.05
2022-10-22T06:01:37.468Z,11.98
2022-10-22T06:04:07.788Z,12.01
2022-10-22T06:06:39.300Z,12.13
2022-10-22T06:12:04.176Z,12.22
2022-10-22T06:14:32.589Z,12.14
2022-10-22T06:17:00.335Z,12.07
2022-10-22T06:19:27.095Z,12.17
2022-10-22T06:21:54.008Z,12.29
2022-10-22T06:24:20.651Z,12.34
2022-10-22T06:26:50.895Z,12.37
2022-10-22T06:29:17.684Z,12.15
2022-10-22T06:31:44.270Z,12.12
2022-10-22T06:34:12.779Z,12.25
2022-10-22T06:36:42.268Z,12.27
2022-10-22T06:39:12.278Z,11.84
2022-10-22T06:41:38.982Z,12.29
2022-10-22T06:44:05.631Z,12.38
2022-10-22T06:46:32.617Z,12.32
2022-10-22T06:49:02.396Z,12.28
2022-10-22T06:51:29.748Z,12.30
2022-10-22T06:53:57.418Z,12.25
2022-10-22T06:56:27.246Z,12.19
2022-10-22T06:58:55.654Z,12.25
2022-10-22T07:01:25.048Z,12.31
2022-10-22T07:03:52.564Z,12.37
2022-10-22T07:06:19.939Z,12.35
2022-10-22T07:08:46.783Z,12.38
2022-10-22T07:11:14.708Z,12.36
2022-10-22T07:13:41.623Z,12.54
2022-10-22T07:16:09.500Z,12.63
2022-10-22T07:18:37.743Z,12.69
2022-10-22T07:21:05.222Z,12.71
2022-10-22T07:23:31.848Z,12.89
2022-10-22T07:25:59.119Z,12.88
2022-10-22T07:28:25.787Z,12.82
2022-10-22T07:30:52.707Z,12.70
2022-10-22T07:33:19.476Z,12.83
2022-10-22T07:35:46.079Z,12.99
2022-10-22T07:38:12.655Z,13.15
2022-10-22T07:40:39.344Z,13.43
2022-10-22T07:43:06.642Z,13.82
2022-10-22T07:45:33.797Z,14.16
2022-10-22T07:48:01.925Z,14.36
2022-10-22T07:50:28.938Z,14.72
2022-10-22T07:52:57.535Z,15.10
2022-10-22T07:55:25.475Z,15.34
2022-10-22T07:57:52.193Z,15.66
2022-10-22T08:00:23.036Z,16.16
2022-10-22T08:02:52.179Z,16.40
2022-10-22T08:05:18.873Z,16.91
2022-10-22T08:07:45.587Z,16.32
2022-10-22T08:10:12.542Z,16.97
2022-10-22T08:12:41.526Z,17.60
2022-10-22T08:15:08.969Z,17.70
2022-10-22T08:17:35.771Z,17.72
2022-10-22T08:20:02.355Z,17.73
2022-10-22T08:22:28.954Z,17.55
2022-10-22T08:24:55.627Z,17.64
2022-10-22T08:27:22.267Z,17.79
2022-10-22T08:29:48.906Z,18.12
2022-10-22T08:32:15.592Z,18.56
2022-10-22T08:34:42.283Z,18.71
2022-10-22T08:37:10.438Z,18.55
2022-10-22T08:39:37.020Z,18.14
2022-10-22T08:42:30.295Z,17.41
2022-10-22T08:45:22.831Z,17.65
2022-10-22T08:47:49.380Z,18.13
2022-10-22T08:50:22.749Z,18.14
2022-10-22T08:52:55.011Z,18.72
2022-10-22T08:55:24.672Z,18.54
2022-10-22T08:58:17.623Z,18.65
2022-10-22T09:01:10.471Z,18.74
2022-10-22T09:03:39.859Z,18.59
2022-10-22T09:06:20.023Z,18.73
2022-10-22T09:08:47.594Z,18.83
2022-10-22T09:11:22.621Z,19.14
2022-10-22T09:13:49.589Z,19.77
2022-10-22T09:16:30.608Z,20.01
2022-10-22T09:19:12.028Z,19.88
2022-10-22T09:21:46.453Z,19.65
2022-10-22T09:24:32.908Z,19.17
2022-10-22T09:27:01.134Z,19.10
2022-10-22T09:29:33.488Z,19.61
2022-10-22T09:32:00.350Z,20.30
2022-10-22T09:34:29.664Z,20.65
2022-10-22T09:37:06.475Z,20.56
2022-10-22T09:39:43.770Z,20.26
2022-10-22T09:42:14.206Z,20.32
2022-10-22T09:44:44.876Z,20.18
2022-10-22T09:47:43.519Z,18.79
2022-10-22T09:50:28.104Z,18.11
2022-10-22T09:53:12.128Z,18.00
2022-10-22T09:55:40.897Z,18.14
2022-10-22T09:58:14.352Z,18.74
2022-10-22T10:00:44.812Z,19.09
2022-10-22T10:03:21.369Z,19.64
2022-10-22T10:05:54.418Z,19.85
2022-10-22T10:08:22.535Z,20.35
2022-10-22T10:11:17.555Z,21.15
2022-10-22T10:14:05.749Z,21.34
2022-10-22T10:16:47.494Z,20.72
2022-10-22T10:19:42.027Z,20.64
2022-10-22T10:22:44.102Z,20.69
2022-10-22T10:25:17.095Z,20.52
2022-10-22T10:27:51.713Z,20.88
2022-10-22T10:30:20.741Z,20.87
2022-10-22T10:32:55.189Z,21.19
2022-10-22T10:35:28.585Z,21.25
2022-10-22T10:38:16.367Z,21.33
2022-10-22T10:41:02.124Z,21.29
2022-10-22T10:44:06.756Z,21.55
2022-10-22T10:46:45.651Z,21.42
2022-10-22T10:49:26.238Z,21.15
2022-10-22T10:52:26.316Z,21.51
2022-10-22T10:55:12.498Z,21.51
2022-10-22T10:57:57.169Z,21.31
2022-10-22T11:00:23.900Z,21.54
2022-10-22T11:03:08.655Z,21.69
2022-10-22T11:05:57.856Z,21.92
2022-10-22T11:08:27.212Z,22.41
2022-10-22T11:10:56.305Z,22.49
2022-10-22T11:13:22.905Z,22.30
2022-10-22T11:16:24.719Z,22.36
2022-10-22T11:19:15.534Z,22.17
2022-10-22T11:22:05.074Z,22.32
2022-10-22T11:24:56.035Z,22.38
2022-10-22T11:27:45.177Z,22.87
2022-10-22T11:30:13.035Z,22.95
2022-10-22T11:32:42.792Z,22.76
2022-10-22T11:35:15.768Z,22.67
2022-10-22T11:37:45.380Z,22.27
2022-10-22T11:40:33.200Z,22.60
2022-10-22T11:43:11.269Z,22.88
2022-10-22T11:45:40.560Z,22.52
2022-10-22T11:48:17.053Z,22.59
2022-10-22T11:50:56.688Z,22.99
2022-10-22T11:53:26.277Z,23.11
2022-10-22T11:56:05.114Z,22.91
2022-10-22T11:58:49.533Z,22.86
2022-10-22T12:01:25.446Z,22.55
2022-10-22T12:03:58.185Z,22.63
2022-10-22T12:06:26.390Z,22.95
2022-10-22T12:08:57.691Z,22.88
2022-10-22T12:11:47.641Z,23.07
2022-10-22T12:14:28.880Z,23.22
2022-10-22T12:17:07.490Z,23.49
2022-10-22T12:19:45.476Z,22.49
2022-10-22T12:22:17.797Z,22.78
2022-10-22T12:24:47.823Z,21.95
2022-10-22T12:27:22.699Z,22.60
2022-10-22T12:29:55.409Z,22.52
2022-10-22T12:32:24.473Z,22.67
2022-10-22T12:34:52.940Z,22.82
2022-10-22T12:37:20.271Z,23.21
2022-10-22T12:39:47.288Z,23.15
2022-10-22T12:42:17.060Z,23.22
2022-10-22T12:44:44.931Z,22.81
2022-10-22T12:47:16.913Z,22.73
2022-10-22T12:49:47.131Z,22.58
2022-10-22T12:52:23.659Z,22.37
2022-10-22T12:54:52.559Z,22.35
2022-10-22T12:57:20.822Z,22.61
2022-10-22T12:59:50.396Z,22.52
2022-10-22T13:02:24.699Z,22.17
2022-10-22T13:05:19.408Z,22.24
2022-10-22T13:07:53.488Z,21.37
2022-10-22T13:10:20.123Z,21.45
2022-10-22T13:12:51.802Z,21.09
2022-10-22T13:15:22.963Z,21.41
2022-10-22T13:17:49.940Z,21.66
2022-10-22T13:20:23.565Z,21.71
2022-10-22T13:23:04.368Z,21.91
2022-10-22T13:25:34.913Z,22.15
2022-10-22T13:28:19.524Z,22.78
2022-10-22T13:31:09.211Z,23.56
2022-10-22T13:33:41.859Z,23.85
2022-10-22T13:36:13.051Z,23.51
2022-10-22T13:38:39.941Z,23.72
2022-10-22T13:41:19.633Z,23.11
2022-10-22T13:43:46.251Z,23.01
2022-10-22T13:46:12.926Z,22.40
2022-10-22T13:48:39.933Z,22.41
2022-10-22T13:51:15.074Z,21.97
2022-10-22T13:53:42.937Z,21.79
2022-10-22T13:56:17.718Z,21.37
2022-10-22T13:58:45.559Z,21.09
2022-10-22T14:01:24.605Z,21.05
2022-10-22T14:03:53.669Z,21.01
2022-10-22T14:06:22.355Z,20.80
2022-10-22T14:08:55.008Z,21.16
2022-10-22T14:11:21.735Z,20.94
2022-10-22T14:13:48.333Z,21.00
2022-10-22T14:16:24.246Z,21.00
2022-10-22T14:18:51.525Z,20.87
2022-10-22T14:21:18.663Z,20.72
2022-10-22T14:23:47.207Z,21.00
2022-10-22T14:26:31.228Z,20.63
2022-10-22T14:29:13.908Z,20.66
2022-10-22T14:31:43.016Z,20.56
2022-10-22T14:34:12.355Z,20.46
2022-10-22T14:36:39.067Z,20.50
2022-10-22T14:39:05.710Z,20.28
2022-10-22T14:41:32.379Z,20.27
2022-10-22T14:43:59.811Z,20.33
2022-10-22T14:46:26.711Z,20.26
2022-10-22T14:48:53.350Z,20.64
2022-10-22T14:51:21.762Z,20.72
2022-10-22T14:53:48.843Z,20.49
2022-10-22T14:56:21.373Z,20.61
2022-10-22T14:58:48.951Z,20.55
2022-10-22T15:01:15.550Z,20.67
2022-10-22T15:03:42.359Z,20.55
2022-10-22T15:06:09.019Z,20.84
2022-10-22T15:08:35.784Z,20.96
2022-10-22T15:11:08.471Z,21.11
2022-10-22T15:13:35.530Z,21.05
2022-10-22T15:16:06.081Z,21.00
2022-10-22T15:18:32.925Z,21.00
2022-10-22T15:21:03.183Z,20.59
2022-10-22T15:23:30.493Z,20.83
2022-10-22T15:25:57.633Z,20.72
2022-10-22T15:28:25.067Z,20.65
2022-10-22T15:30:57.312Z,20.64
2022-10-22T15:33:24.305Z,20.58
2022-10-22T15:35:51.071Z,20.33
2022-10-22T15:38:18.583Z,20.32
2022-10-22T15:40:45.501Z,20.15
2022-10-22T15:43:12.443Z,19.91
2022-10-22T15:45:39.680Z,20.02
2022-10-22T15:48:06.626Z,19.79
2022-10-22T15:50:37.664Z,19.65
2022-10-22T15:53:04.408Z,19.69
2022-10-22T15:55:31.385Z,19.06
2022-10-22T15:58:00.586Z,19.31
2022-10-22T16:00:30.250Z,18.81
2022-10-22T16:02:56.901Z,18.99
2022-10-22T16:05:23.745Z,18.96
2022-10-22T16:07:51.450Z,18.70
2022-10-22T16:10:18.288Z,18.63
2022-10-22T16:12:45.074Z,18.31
2022-10-22T16:15:11.797Z,18.42
2022-10-22T16:17:38.456Z,18.15
2022-10-22T16:20:05.821Z,18.14
2022-10-22T16:22:33.352Z,17.87
2022-10-22T16:24:59.958Z,17.65
2022-10-22T16:27:26.726Z,17.76
2022-10-22T16:29:53.413Z,17.65
2022-10-22T16:32:20.094Z,17.50
2022-10-22T16:34:46.724Z,17.26
2022-10-22T16:37:13.548Z,17.22
2022-10-22T16:39:40.230Z,17.14
2022-10-22T16:42:06.904Z,17.10
2022-10-22T16:44:33.635Z,17.02
2022-10-22T16:47:00.961Z,16.82
2022-10-22T16:49:27.671Z,16.79
2022-10-22T16:51:54.337Z,16.44
2022-10-22T16:54:21.847Z,16.59
2022-10-22T16:56:48.527Z,16.15
2022-10-22T16:59:15.311Z,16.06
2022-10-22T17:01:42.182Z,16.01
2022-10-22T17:04:09.116Z,16.20
2022-10-22T17:06:36.004Z,15.94
2022-10-22T17:09:02.903Z,16.01
2022-10-22T17:11:34.814Z,15.73
2022-10-22T17:14:03.252Z,15.44
2022-10-22T17:16:30.062Z,15.66
2022-10-22T17:18:58.114Z,15.75
2022-10-22T17:21:25.307Z,15.65
2022-10-22T17:23:58.132Z,15.47
2022-10-22T17:26:26.839Z,15.37
2022-10-22T17:28:53.970Z,15.37
2022-10-22T17:31:22.230Z,15.39
2022-10-22T17:33:51.328Z,15.33
2022-10-22T17:36:19.013Z,15.26
2022-10-22T17:38:49.629Z,14.84
2022-10-22T17:41:19.365Z,14.65
2022-10-22T17:43:46.964Z,14.93
2022-10-22T17:46:19.897Z,14.93
2022-10-22T17:48:55.318Z,14.88
2022-10-22T17:51:23.293Z,14.87
2022-10-22T17:53:52.801Z,14.58
2022-10-22T17:56:22.298Z,14.38
2022-10-22T17:58:49.658Z,14.37
2022-10-22T18:01:24.252Z,14.73
2022-10-22T18:03:52.431Z,14.70
2022-10-22T18:06:19.172Z,14.65
2022-10-22T18:08:46.120Z,14.58
2022-10-22T18:11:17.600Z,14.48
2022-10-22T18:13:44.447Z,14.57
2022-10-22T18:16:12.195Z,14.56
2022-10-22T18:18:38.788Z,14.42
2022-10-22T18:21:05.603Z,13.99
2022-10-22T18:23:33.297Z,14.08
2022-10-22T18:26:00.085Z,14.12
2022-10-22T18:28:26.702Z,14.06
2022-10-22T18:30:53.312Z,13.87
2022-10-22T18:33:23.992Z,13.61
2022-10-22T18:35:52.541Z,13.35
2022-10-22T18:38:23.545Z,13.44
2022-10-22T18:40:50.456Z,13.59
2022-10-22T18:43:17.781Z,13.20
2022-10-22T18:45:46.523Z,13.41
2022-10-22T18:48:14.786Z,13.16
2022-10-22T18:50:41.737Z,13.33
2022-10-22T18:53:09.079Z,13.06
2022-10-22T18:55:39.494Z,13.45
2022-10-22T18:58:06.930Z,13.64
2022-10-22T19:00:35.192Z,13.56
2022-10-22T19:03:03.174Z,13.33
2022-10-22T19:05:30.649Z,13.37
2022-10-22T19:07:57.621Z,13.61
2022-10-22T19:10:24.382Z,13.58
2022-10-22T19:12:51.267Z,13.53
2022-10-22T19:15:18.199Z,13.40
2022-10-22T19:17:45.376Z,13.33
2022-10-22T19:20:13.073Z,13.39
2022-10-22T19:22:39.936Z,13.38
2022-10-22T19:25:09.690Z,13.31
2022-10-22T19:27:39.725Z,13.27
2022-10-22T19:30:07.239Z,13.15
2022-10-22T19:32:33.898Z,13.11
2022-10-22T19:35:00.674Z,12.81
2022-10-22T19:37:28.119Z,13.08
2022-10-22T19:39:54.826Z,13.11
2022-10-22T19:42:21.681Z,13.17
2022-10-22T19:44:48.669Z,13.06
2022-10-22T19:47:16.076Z,13.13
2022-10-22T19:49:42.828Z,12.89
2022-10-22T19:52:10.059Z,12.56
2022-10-22T19:54:40.691Z,12.92
2022-10-22T19:57:08.080Z,12.89
2022-10-22T19:59:34.965Z,13.05
2022-10-22T20:02:01.737Z,12.92
2022-10-22T20:04:30.976Z,13.09
2022-10-22T20:06:57.834Z,13.06
2022-10-22T20:09:24.905Z,13.04
2022-10-22T20:11:51.827Z,12.87
2022-10-22T20:14:18.810Z,12.68
2022-10-22T20:16:46.327Z,12.78
2022-10-22T20:19:16.192Z,12.86
2022-10-22T20:21:44.052Z,12.95
2022-10-22T20:24:11.842Z,12.63
2022-10-22T20:26:38.626Z,12.82
2022-10-22T20:29:05.291Z,12.74
2022-10-22T20:31:33.083Z,12.79
2022-10-22T20:34:01.203Z,12.76
2022-10-22T20:36:30.104Z,12.77
2022-10-22T20:39:03.396Z,12.78
2022-10-22T20:41:30.226Z,12.67
2022-10-22T20:43:57.109Z,12.35
2022-10-22T20:46:26.972Z,12.37
2022-10-22T20:48:58.333Z,12.71
2022-10-22T20:51:25.158Z,12.65
2022-10-22T20:53:51.933Z,12.56
2022-10-22T20:56:19.808Z,12.45
2022-10-22T20:58:50.475Z,12.73
2022-10-22T21:01:22.047Z,12.69
2022-10-22T21:03:50.275Z,12.68
2022-10-22T21:06:17.007Z,12.51
2022-10-22T21:08:43.743Z,12.43
2022-10-22T21:11:10.588Z,12.22
2022-10-22T21:13:37.338Z,12.57
2022-10-22T21:16:08.797Z,12.55
2022-10-22T21:18:35.543Z,12.53
2022-10-22T21:21:07.235Z,12.15
2022-10-22T21:23:36.282Z,12.42
2022-10-22T21:26:03.751Z,12.49
2022-10-22T21:28:34.954Z,12.54
2022-10-22T21:31:07.436Z,12.54
2022-10-22T21:33:38.733Z,12.50
2022-10-22T21:36:06.617Z,12.50
2022-10-22T21:38:34.450Z,12.03
2022-10-22T21:41:07.773Z,12.29
2022-10-22T21:43:37.561Z,12.31
2022-10-22T21:46:13.189Z,12.29
2022-10-22T21:48:42.714Z,12.24
2022-10-22T21:51:15.390Z,12.27
2022-10-22T21:53:42.596Z,12.02
2022-10-22T21:56:21.261Z,11.97
2022-10-22T21:58:47.929Z,11.77
2022-10-22T22:01:15.356Z,12.12
2022-10-22T22:03:43.657Z,12.11
2022-10-22T22:06:10.936Z,12.07
2022-10-22T22:08:38.036Z,12.04
2022-10-22T22:11:08.169Z,12.04
2022-10-22T22:13:34.956Z,11.98
2022-10-22T22:16:07.974Z,12.03
2022-10-22T22:18:35.280Z,11.99
2022-10-22T22:21:06.949Z,11.95
2022-10-22T22:23:33.735Z,11.71
2022-10-22T22:26:01.475Z,11.43
2022-10-22T22:28:31.900Z,11.83
2022-10-22T22:30:59.135Z,11.80
2022-10-22T22:33:26.016Z,11.79
2022-10-22T22:35:53.131Z,11.71
2022-10-22T22:38:19.729Z,11.68
2022-10-22T22:40:46.315Z,11.31
2022-10-22T22:43:12.907Z,11.59
2022-10-22T22:45:40.677Z,11.60
2022-10-22T22:48:07.726Z,11.63
2022-10-22T22:50:36.533Z,11.64
2022-10-22T22:53:03.235Z,11.57
2022-10-22T22:55:31.888Z,11.59
2022-10-22T22:57:58.791Z,11.42
2022-10-22T23:00:25.697Z,11.41
2022-10-22T23:02:55.768Z,11.26
2022-10-22T23:05:22.520Z,11.31
2022-10-22T23:07:49.261Z,11.30
2022-10-22T23:10:16.061Z,11.41
2022-10-22T23:12:42.912Z,11.37
2022-10-22T23:15:10.202Z,11.25
2022-10-22T23:20:09.011Z,11.31
2022-10-22T23:22:35.585Z,11.27
2022-10-22T23:25:02.312Z,11.22
2022-10-22T23:27:28.896Z,11.15
2022-10-22T23:29:55.482Z,11.12
2022-10-22T23:32:22.148Z,11.28
2022-10-22T23:34:48.860Z,11.32
2022-10-22T23:37:15.487Z,11.38
2022-10-22T23:39:42.115Z,11.34
2022-10-22T23:42:08.688Z,11.38
2022-10-22T23:44:35.361Z,11.03
2022-10-22T23:47:02.055Z,11.39
2022-10-22T23:49:28.657Z,11.41
2022-10-22T23:51:55.250Z,10.95
2022-10-22T23:54:21.918Z,11.24
2022-10-22T23:56:48.679Z,11.32
2022-10-22T23:59:15.727Z,11.32
